createdAt,value
2023-09-27T00:00:59.379Z,19.57
2023-09-27T00:03:26.189Z,19.31
2023-09-27T00:05:52.932Z,18.99
2023-09-27T00:08:20.426Z,18.85
2023-09-27T00:10:47.345Z,18.21
2023-09-27T00:13:14.046Z,18.59
2023-09-27T00:15:41.266Z,18.38
2023-09-27T00:18:10.668Z,18.90
2023-09-27T00:20:37.575Z,18.19
2023-09-27T00:23:04.615Z,14.06
2023-09-27T00:25:31.452Z,13.61
2023-09-27T00:27:58.125Z,13.89
2023-09-27T00:30:24.714Z,15.93
2023-09-27T00:32:51.438Z,16.34
2023-09-27T00:35:23.206Z,16.49
2023-09-27T00:37:51.660Z,16.90
2023-09-27T00:40:22.226Z,17.81
2023-09-27T00:42:49.463Z,16.78
2023-09-27T00:45:17.982Z,17.55
2023-09-27T00:47:47.453Z,17.92
2023-09-27T00:50:14.553Z,15.60
2023-09-27T00:52:42.954Z,16.28
2023-09-27T00:55:13.182Z,15.31
2023-09-27T00:57:41.228Z,15.83
2023-09-27T01:00:11.469Z,18.10
2023-09-27T01:02:40.214Z,16.32
2023-09-27T01:05:10.292Z,17.63
2023-09-27T01:07:39.799Z,17.48
2023-09-27T01:10:07.929Z,16.69
2023-09-27T01:12:34.938Z,16.08
2023-09-27T01:15:02.081Z,17.31
2023-09-27T01:17:29.110Z,18.62
2023-09-27T01:19:55.943Z,17.97
2023-09-27T01:22:22.538Z,18.92
2023-09-27T01:24:52.568Z,18.47
2023-09-27T01:27:21.005Z,16.52
2023-09-27T01:29:47.752Z,16.93
2023-09-27T01:32:14.453Z,18.05
2023-09-27T01:34:41.138Z,18.28
2023-09-27T01:37:09.844Z,18.33
2023-09-27T01:39:36.572Z,18.02
2023-09-27T01:42:03.269Z,18.46
2023-09-27T01:44:29.957Z,18.56
2023-09-27T01:46:56.627Z,18.02
2023-09-27T01:49:23.218Z,18.50
2023-09-27T01:51:50.471Z,18.16
2023-09-27T01:54:17.118Z,19.37
2023-09-27T01:56:43.728Z,17.71
2023-09-27T01:59:10.408Z,17.39
2023-09-27T02:01:37.203Z,17.19
2023-09-27T02:04:05.340Z,15.78
2023-09-27T02:06:32.344Z,13.47
2023-09-27T02:08:59.007Z,16.68
2023-09-27T02:11:26.799Z,17.42
2023-09-27T02:13:53.946Z,18.48
2023-09-27T02:16:20.819Z,18.48
2023-09-27T02:18:47.475Z,17.47
2023-09-27T02:21:14.549Z,17.62
2023-09-27T02:23:41.313Z,17.71
2023-09-27T02:26:08.036Z,18.64
2023-09-27T02:28:34.696Z,18.18
2023-09-27T02:31:01.425Z,17.23
2023-09-27T02:33:29.000Z,17.94
2023-09-27T02:35:56.293Z,17.68
2023-09-27T02:38:23.191Z,18.44
2023-09-27T02:40:50.015Z,17.87
2023-09-27T02:43:16.697Z,18.56
2023-09-27T02:45:43.913Z,17.51
2023-09-27T02:48:10.674Z,17.16
2023-09-27T02:50:37.660Z,17.21
2023-09-27T02:53:05.468Z,16.46
2023-09-27T02:55:32.186Z,15.84
2023-09-27T02:57:58.783Z,15.35
2023-09-27T03:00:27.800Z,16.39
2023-09-27T03:02:54.544Z,16.30
2023-09-27T03:05:21.484Z,16.89
2023-09-27T03:07:49.532Z,17.31
2023-09-27T03:10:17.065Z,16.48
2023-09-27T03:12:44.199Z,16.27
2023-09-27T03:15:13.279Z,16.18
2023-09-27T03:17:42.238Z,16.71
2023-09-27T03:20:17.345Z,16.37
2023-09-27T03:22:44.898Z,12.98
2023-09-27T03:25:11.656Z,11.54
2023-09-27T03:27:38.298Z,11.55
2023-09-27T03:30:08.430Z,11.53
2023-09-27T03:32:35.184Z,11.17
2023-09-27T03:35:01.950Z,10.91
2023-09-27T03:37:28.551Z,10.23
2023-09-27T03:39:56.892Z,10.82
2023-09-27T03:42:24.506Z,11.69
2023-09-27T03:44:51.584Z,11.53
2023-09-27T03:47:18.526Z,11.00
2023-09-27T03:49:45.216Z,10.47
2023-09-27T03:52:11.785Z,10.44
2023-09-27T03:54:38.429Z,10.75
2023-09-27T03:57:05.317Z,11.31
2023-09-27T03:59:32.010Z,11.07
2023-09-27T04:01:58.950Z,12.39
2023-09-27T04:04:25.741Z,12.42
2023-09-27T04:06:52.777Z,11.76
2023-09-27T04:09:19.332Z,12.01
2023-09-27T04:11:45.901Z,11.13
2023-09-27T04:14:12.818Z,10.96
2023-09-27T04:16:39.531Z,10.75
2023-09-27T04:19:06.101Z,11.51
2023-09-27T04:21:32.815Z,12.16
2023-09-27T04:24:00.882Z,12.59
2023-09-27T04:26:27.981Z,12.52
2023-09-27T04:28:55.374Z,12.84
2023-09-27T04:31:22.522Z,12.72
2023-09-27T04:33:49.402Z,12.61
2023-09-27T04:36:19.174Z,13.57
2023-09-27T04:38:47.060Z,14.07
2023-09-27T04:41:19.032Z,13.76
2023-09-27T04:43:45.800Z,11.78
2023-09-27T04:46:14.845Z,12.62
2023-09-27T04:48:41.580Z,11.96
2023-09-27T04:51:08.255Z,11.81
2023-09-27T04:53:38.188Z,10.96
2023-09-27T04:56:08.727Z,10.63
2023-09-27T04:58:38.405Z,8.53
2023-09-27T05:01:10.479Z,9.34
2023-09-27T05:03:37.289Z,10.14
2023-09-27T05:06:03.916Z,11.32
2023-09-27T05:08:30.932Z,11.36
2023-09-27T05:10:57.733Z,10.83
2023-09-27T05:13:24.651Z,10.62
2023-09-27T05:15:54.311Z,10.75
2023-09-27T05:18:22.300Z,11.27
2023-09-27T05:20:48.937Z,11.22
2023-09-27T05:23:16.034Z,11.42
2023-09-27T05:25:42.772Z,12.24
2023-09-27T05:28:10.319Z,11.53
2023-09-27T05:30:37.446Z,11.93
2023-09-27T05:33:07.577Z,12.22
2023-09-27T05:35:34.690Z,11.75
2023-09-27T05:38:01.664Z,11.77
2023-09-27T05:40:28.547Z,11.57
2023-09-27T05:42:55.203Z,11.22
2023-09-27T05:45:21.894Z,11.87
2023-09-27T05:47:48.590Z,12.28
2023-09-27T05:50:15.557Z,13.13
2023-09-27T05:52:47.214Z,13.68
2023-09-27T05:55:15.542Z,15.10
2023-09-27T05:57:42.279Z,16.44
2023-09-27T06:00:36.292Z,16.03
2023-09-27T06:03:03.143Z,17.82
2023-09-27T06:05:29.944Z,17.59
2023-09-27T06:07:56.564Z,17.39
2023-09-27T06:10:23.664Z,17.09
2023-09-27T06:12:50.322Z,17.12
2023-09-27T06:15:18.644Z,17.54
2023-09-27T06:17:45.538Z,17.80
2023-09-27T06:20:20.773Z,17.02
2023-09-27T06:22:51.539Z,17.07
2023-09-27T06:25:19.379Z,18.11
2023-09-27T06:27:46.436Z,18.79
2023-09-27T06:30:13.669Z,19.42
2023-09-27T06:32:40.688Z,19.41
2023-09-27T06:35:13.902Z,19.29
2023-09-27T06:37:45.956Z,20.12
2023-09-27T06:40:17.738Z,20.95
2023-09-27T06:42:45.422Z,20.21
2023-09-27T06:45:14.081Z,20.11
2023-09-27T06:47:46.974Z,19.34
2023-09-27T06:50:15.150Z,18.93
2023-09-27T06:52:41.994Z,19.34
2023-09-27T06:55:12.091Z,20.25
2023-09-27T06:57:42.171Z,20.68
2023-09-27T07:00:25.388Z,21.09
2023-09-27T07:02:53.594Z,20.80
2023-09-27T07:05:24.109Z,21.36
2023-09-27T07:07:51.973Z,21.22
2023-09-27T07:10:18.608Z,21.26
2023-09-27T07:12:45.318Z,21.57
2023-09-27T07:15:15.358Z,22.08
2023-09-27T07:17:44.796Z,22.44
2023-09-27T07:20:25.796Z,21.51
2023-09-27T07:22:53.407Z,21.90
2023-09-27T07:25:21.537Z,22.00
2023-09-27T07:27:48.927Z,22.16
2023-09-27T07:30:25.906Z,23.06
2023-09-27T07:32:54.851Z,21.81
2023-09-27T07:35:22.802Z,22.38
2023-09-27T07:37:49.488Z,22.64
2023-09-27T07:40:16.683Z,22.87
2023-09-27T07:42:44.652Z,23.82
2023-09-27T07:45:22.458Z,24.32
2023-09-27T07:47:54.219Z,25.57
2023-09-27T07:50:24.190Z,25.53
2023-09-27T07:52:50.930Z,25.73
2023-09-27T07:55:18.855Z,25.53
2023-09-27T07:57:46.852Z,26.40
2023-09-27T08:00:20.042Z,26.28
2023-09-27T08:02:47.295Z,26.54
2023-09-27T08:05:17.645Z,27.45
2023-09-27T08:07:47.709Z,27.09
2023-09-27T08:12:44.632Z,26.04
2023-09-27T08:15:13.770Z,25.72
2023-09-27T08:17:40.945Z,26.13
2023-09-27T08:20:10.855Z,25.32
2023-09-27T08:22:40.646Z,25.27
2023-09-27T08:25:10.408Z,25.92
2023-09-27T08:27:37.917Z,25.52
2023-09-27T08:30:07.376Z,25.39
2023-09-27T08:32:35.775Z,25.60
2023-09-27T08:35:03.705Z,25.81
2023-09-27T08:37:30.385Z,26.26
2023-09-27T08:39:57.306Z,25.75
2023-09-27T08:42:25.302Z,26.22
2023-09-27T08:44:53.889Z,26.49
2023-09-27T08:47:21.514Z,26.47
2023-09-27T08:49:51.061Z,26.21
2023-09-27T08:52:18.654Z,25.94
2023-09-27T08:54:45.268Z,26.72
2023-09-27T08:57:12.985Z,26.41
2023-09-27T08:59:40.367Z,25.63
2023-09-27T09:02:07.885Z,26.56
2023-09-27T09:04:34.587Z,26.96
2023-09-27T09:07:03.029Z,27.12
2023-09-27T09:09:31.684Z,26.96
2023-09-27T09:12:01.857Z,25.70
2023-09-27T09:14:56.205Z,26.35
2023-09-27T09:17:35.338Z,26.46
2023-09-27T09:20:19.124Z,25.36
2023-09-27T09:22:46.809Z,23.36
2023-09-27T09:25:13.393Z,22.52
2023-09-27T09:27:41.244Z,22.35
2023-09-27T09:30:12.582Z,22.74
2023-09-27T09:32:51.507Z,22.37
2023-09-27T09:35:33.571Z,22.95
2023-09-27T09:38:02.676Z,22.75
2023-09-27T09:40:31.047Z,22.40
2023-09-27T09:43:00.340Z,23.22
2023-09-27T09:45:28.146Z,22.92
2023-09-27T09:47:55.058Z,22.60
2023-09-27T09:50:21.921Z,22.78
2023-09-27T09:52:59.681Z,21.89
2023-09-27T09:55:45.607Z,22.01
2023-09-27T09:58:36.007Z,20.54
2023-09-27T10:01:04.582Z,20.28
2023-09-27T10:03:35.370Z,20.30
2023-09-27T10:06:06.358Z,19.33
2023-09-27T10:08:39.674Z,19.20
2023-09-27T10:11:06.627Z,19.94
2023-09-27T10:13:36.450Z,19.09
2023-09-27T10:16:07.129Z,19.70
2023-09-27T10:18:37.764Z,20.01
2023-09-27T10:21:04.466Z,21.50
2023-09-27T10:23:36.298Z,21.85
2023-09-27T10:26:26.409Z,21.48
2023-09-27T10:29:05.814Z,21.91
2023-09-27T10:31:34.367Z,23.45
2023-09-27T10:34:01.111Z,23.17
2023-09-27T10:36:29.724Z,23.66
2023-09-27T10:38:56.417Z,24.76
2023-09-27T10:41:43.632Z,26.35
2023-09-27T10:44:10.424Z,26.81
2023-09-27T10:46:49.861Z,26.22
2023-09-27T10:49:24.121Z,26.16
2023-09-27T10:51:53.472Z,25.81
2023-09-27T10:54:24.687Z,26.08
2023-09-27T10:56:54.899Z,26.30
2023-09-27T10:59:26.761Z,25.94
2023-09-27T11:01:54.643Z,24.98
2023-09-27T11:04:25.419Z,23.94
2023-09-27T11:06:53.299Z,23.72
2023-09-27T11:09:20.807Z,24.04
2023-09-27T11:11:51.678Z,21.20
2023-09-27T11:14:35.147Z,18.79
2023-09-27T11:17:16.789Z,19.93
2023-09-27T11:19:43.613Z,19.85
2023-09-27T11:22:10.937Z,19.81
2023-09-27T11:24:41.786Z,18.82
2023-09-27T11:27:09.370Z,18.11
2023-09-27T11:29:36.759Z,17.80
2023-09-27T11:32:03.589Z,17.40
2023-09-27T11:34:31.355Z,16.68
2023-09-27T11:37:03.993Z,15.53
2023-09-27T11:39:49.553Z,15.52
2023-09-27T11:42:24.408Z,14.77
2023-09-27T11:45:05.415Z,14.72
2023-09-27T11:47:35.623Z,12.07
2023-09-27T11:50:02.498Z,12.11
2023-09-27T11:52:29.125Z,11.95
2023-09-27T11:54:55.739Z,12.21
2023-09-27T11:57:22.353Z,11.77
2023-09-27T11:59:49.059Z,11.37
2023-09-27T12:02:28.102Z,12.48
2023-09-27T12:04:59.242Z,10.18
2023-09-27T12:07:26.456Z,9.96
2023-09-27T12:09:53.400Z,10.46
2023-09-27T12:12:20.055Z,9.23
2023-09-27T12:14:46.623Z,9.16
2023-09-27T12:17:13.882Z,8.37
2023-09-27T12:19:41.076Z,9.03
2023-09-27T12:22:07.717Z,8.51
2023-09-27T12:24:34.370Z,8.81
2023-09-27T12:27:00.968Z,8.98
2023-09-27T12:29:28.058Z,9.05
2023-09-27T12:31:54.769Z,9.17
2023-09-27T12:34:21.493Z,8.98
2023-09-27T12:36:48.796Z,8.75
2023-09-27T12:39:15.994Z,8.68
2023-09-27T12:41:42.942Z,8.94
2023-09-27T12:44:13.653Z,8.89
2023-09-27T12:46:45.938Z,8.03
2023-09-27T12:49:13.035Z,7.74
2023-09-27T12:51:48.830Z,7.69
2023-09-27T12:54:16.266Z,8.47
2023-09-27T12:56:43.787Z,8.70
2023-09-27T12:59:10.521Z,8.65
2023-09-27T13:01:37.683Z,8.76
2023-09-27T13:04:06.952Z,7.99
2023-09-27T13:06:33.854Z,8.66
2023-09-27T13:09:00.529Z,9.20
2023-09-27T13:11:27.181Z,9.32
2023-09-27T13:13:53.789Z,9.68
2023-09-27T13:16:20.438Z,9.87
2023-09-27T13:18:49.551Z,9.19
2023-09-27T13:21:17.018Z,9.26
2023-09-27T13:23:43.699Z,9.20
2023-09-27T13:26:10.426Z,8.32
2023-09-27T13:28:37.059Z,8.80
2023-09-27T13:31:03.688Z,8.59
2023-09-27T13:33:30.454Z,8.34
2023-09-27T13:36:00.994Z,8.13
2023-09-27T13:38:27.896Z,8.20
2023-09-27T13:40:54.551Z,7.23
2023-09-27T13:43:21.417Z,7.58
2023-09-27T13:45:48.483Z,8.14
2023-09-27T13:48:15.325Z,7.88
2023-09-27T13:50:42.037Z,7.58
2023-09-27T13:53:08.799Z,7.86
2023-09-27T13:55:35.506Z,8.00
2023-09-27T13:58:02.144Z,8.13
2023-09-27T14:00:29.218Z,7.78
2023-09-27T14:02:56.385Z,7.95
2023-09-27T14:05:23.221Z,8.24
2023-09-27T14:07:51.101Z,9.03
2023-09-27T14:10:18.248Z,8.28
2023-09-27T14:12:44.820Z,8.84
2023-09-27T14:15:13.066Z,9.53
2023-09-27T14:17:41.370Z,9.37
2023-09-27T14:20:08.441Z,9.92
2023-09-27T14:22:35.566Z,9.64
2023-09-27T14:25:02.486Z,10.03
2023-09-27T14:27:29.408Z,10.28
2023-09-27T14:29:56.142Z,10.30
2023-09-27T14:32:23.569Z,9.28
2023-09-27T14:37:20.289Z,10.44
2023-09-27T14:39:48.520Z,10.84
2023-09-27T14:42:15.229Z,10.02
2023-09-27T14:44:41.808Z,9.48
2023-09-27T14:47:08.697Z,9.85
2023-09-27T14:49:36.513Z,9.71
2023-09-27T14:52:03.249Z,9.47
2023-09-27T14:54:29.880Z,9.69
2023-09-27T14:56:58.457Z,10.00
2023-09-27T14:59:25.110Z,10.01
2023-09-27T15:01:54.217Z,9.93
2023-09-27T15:04:21.155Z,9.59
2023-09-27T15:06:48.044Z,10.32
2023-09-27T15:09:14.721Z,10.85
2023-09-27T15:11:41.352Z,9.90
2023-09-27T15:14:07.900Z,10.19
2023-09-27T15:16:35.532Z,10.54
2023-09-27T15:19:02.440Z,10.89
2023-09-27T15:21:29.043Z,10.72
2023-09-27T15:23:55.808Z,10.83
2023-09-27T15:26:22.644Z,10.87
2023-09-27T15:28:49.236Z,10.23
2023-09-27T15:31:15.843Z,10.99
2023-09-27T15:33:42.474Z,10.79
2023-09-27T15:36:12.979Z,10.18
2023-09-27T15:38:44.469Z,10.10
2023-09-27T15:41:20.061Z,10.82
2023-09-27T15:43:47.651Z,10.87
2023-09-27T15:46:16.576Z,11.18
2023-09-27T15:48:44.426Z,11.26
2023-09-27T15:51:12.957Z,11.58
2023-09-27T15:53:40.810Z,11.38
2023-09-27T15:56:11.458Z,11.28
2023-09-27T15:58:39.609Z,11.72
2023-09-27T16:01:07.940Z,11.72
2023-09-27T16:03:35.856Z,11.99
2023-09-27T16:06:04.961Z,12.54
2023-09-27T16:08:32.101Z,12.80
2023-09-27T16:10:59.176Z,12.28
2023-09-27T16:13:26.281Z,12.48
2023-09-27T16:15:53.323Z,12.81
2023-09-27T16:18:20.926Z,12.28
2023-09-27T16:20:50.456Z,12.31
2023-09-27T16:23:17.521Z,12.31
2023-09-27T16:25:47.520Z,12.21
2023-09-27T16:28:14.400Z,11.97
2023-09-27T16:30:41.992Z,12.63
2023-09-27T16:33:10.914Z,12.61
2023-09-27T16:35:38.771Z,13.01
2023-09-27T16:38:05.507Z,13.15
2023-09-27T16:40:32.443Z,12.81
2023-09-27T16:42:59.856Z,12.92
2023-09-27T16:45:27.832Z,11.84
2023-09-27T16:47:55.379Z,12.02
2023-09-27T16:50:22.057Z,12.24
2023-09-27T16:52:49.438Z,12.75
2023-09-27T16:55:16.590Z,12.72
2023-09-27T16:57:43.271Z,12.68
2023-09-27T17:00:13.274Z,12.46
2023-09-27T17:02:41.226Z,12.94
2023-09-27T17:05:08.678Z,12.17
2023-09-27T17:07:36.615Z,13.21
2023-09-27T17:10:05.499Z,13.20
2023-09-27T17:12:32.994Z,13.84
2023-09-27T17:14:59.840Z,13.59
2023-09-27T17:17:26.928Z,13.76
2023-09-27T17:19:54.772Z,13.43
2023-09-27T17:22:21.554Z,13.72
2023-09-27T17:24:49.299Z,13.59
2023-09-27T17:27:17.904Z,13.95
2023-09-27T17:29:44.626Z,13.96
2023-09-27T17:32:11.379Z,14.50
2023-09-27T17:34:38.070Z,13.89
2023-09-27T17:37:05.354Z,14.22
2023-09-27T17:39:32.139Z,14.46
2023-09-27T17:42:00.318Z,14.54
2023-09-27T17:44:27.301Z,14.58
2023-09-27T17:46:59.920Z,14.60
2023-09-27T17:49:27.355Z,14.32
2023-09-27T17:51:56.791Z,14.65
2023-09-27T17:54:24.468Z,14.53
2023-09-27T17:56:54.228Z,14.50
2023-09-27T17:59:20.926Z,14.46
2023-09-27T18:01:48.381Z,14.22
2023-09-27T18:04:15.160Z,14.62
2023-09-27T18:06:41.792Z,14.48
2023-09-27T18:09:08.561Z,14.42
2023-09-27T18:11:35.180Z,14.30
2023-09-27T18:14:02.015Z,14.44
2023-09-27T18:16:28.986Z,14.92
2023-09-27T18:18:55.961Z,15.21
2023-09-27T18:21:24.663Z,15.14
2023-09-27T18:23:51.874Z,15.39
2023-09-27T18:26:18.831Z,15.53
2023-09-27T18:28:45.916Z,15.43
2023-09-27T18:31:12.924Z,15.61
2023-09-27T18:33:39.714Z,15.82
2023-09-27T18:36:06.967Z,15.86
2023-09-27T18:38:34.081Z,15.63
2023-09-27T18:41:00.756Z,16.81
2023-09-27T18:43:27.462Z,16.99
2023-09-27T18:45:54.276Z,17.05
2023-09-27T18:48:21.346Z,17.08
2023-09-27T18:50:51.379Z,16.74
2023-09-27T18:53:18.873Z,17.06
2023-09-27T18:55:45.626Z,16.90
2023-09-27T18:58:14.718Z,16.87
2023-09-27T19:00:44.945Z,17.12
2023-09-27T19:03:13.701Z,16.93
2023-09-27T19:05:40.902Z,17.55
2023-09-27T19:08:07.622Z,17.56
2023-09-27T19:10:34.493Z,17.90
2023-09-27T19:13:01.331Z,18.06
2023-09-27T19:15:28.015Z,17.27
2023-09-27T19:17:57.856Z,17.42
2023-09-27T19:20:25.768Z,18.47
2023-09-27T19:22:54.086Z,18.26
2023-09-27T19:25:21.645Z,17.69
2023-09-27T19:27:49.228Z,17.80
2023-09-27T19:30:19.549Z,17.90
2023-09-27T19:32:46.477Z,17.89
2023-09-27T19:35:15.267Z,17.36
2023-09-27T19:37:43.166Z,17.26
2023-09-27T19:40:13.780Z,17.04
2023-09-27T19:42:43.751Z,17.50
2023-09-27T19:45:11.308Z,17.85
2023-09-27T19:47:38.143Z,17.70
2023-09-27T19:50:10.221Z,17.08
2023-09-27T19:52:38.831Z,17.35
2023-09-27T19:55:11.911Z,17.23
2023-09-27T19:57:38.661Z,17.71
2023-09-27T20:00:11.871Z,17.62
2023-09-27T20:02:45.483Z,17.75
2023-09-27T20:05:12.420Z,18.59
2023-09-27T20:07:40.585Z,18.60
2023-09-27T20:10:08.245Z,18.75
2023-09-27T20:12:35.156Z,18.56
2023-09-27T20:15:01.893Z,18.62
2023-09-27T20:17:28.641Z,19.52
2023-09-27T20:19:55.569Z,18.84
2023-09-27T20:22:22.437Z,19.30
2023-09-27T20:24:49.147Z,19.40
2023-09-27T20:27:16.348Z,20.52
2023-09-27T20:29:43.206Z,20.59
2023-09-27T20:32:10.023Z,20.53
2023-09-27T20:34:37.083Z,20.80
2023-09-27T20:37:03.769Z,20.91
2023-09-27T20:39:30.513Z,21.42
2023-09-27T20:41:58.000Z,22.04
2023-09-27T20:44:26.011Z,22.03
2023-09-27T20:46:52.686Z,22.38
2023-09-27T20:49:19.296Z,21.91
2023-09-27T20:51:46.079Z,21.26
2023-09-27T20:54:12.775Z,21.59
2023-09-27T20:56:39.515Z,20.94
2023-09-27T20:59:08.944Z,21.13
2023-09-27T21:01:42.188Z,20.88
2023-09-27T21:04:09.071Z,21.05
2023-09-27T21:06:35.852Z,20.54
2023-09-27T21:09:04.271Z,20.29
2023-09-27T21:11:31.436Z,20.32
2023-09-27T21:14:00.522Z,20.71
2023-09-27T21:16:30.323Z,20.70
2023-09-27T21:18:57.844Z,20.44
2023-09-27T21:21:24.956Z,20.58
2023-09-27T21:23:52.946Z,19.96
2023-09-27T21:26:20.865Z,19.17
2023-09-27T21:28:48.088Z,19.30
2023-09-27T21:31:15.011Z,18.88
2023-09-27T21:33:43.140Z,18.56
2023-09-27T21:36:10.208Z,18.25
2023-09-27T21:38:37.363Z,17.67
2023-09-27T21:41:04.722Z,17.47
2023-09-27T21:43:33.501Z,17.28
2023-09-27T21:46:01.576Z,16.88
2023-09-27T21:48:28.365Z,15.35
2023-09-27T21:50:55.038Z,14.27
2023-09-27T21:53:21.810Z,13.52
2023-09-27T21:55:48.490Z,12.38
2023-09-27T21:58:15.207Z,12.13
2023-09-27T22:00:42.841Z,12.60
2023-09-27T22:03:12.658Z,12.14
2023-09-27T22:05:39.699Z,12.15
2023-09-27T22:08:06.548Z,12.05
2023-09-27T22:10:35.909Z,12.49
2023-09-27T22:13:22.158Z,12.34
2023-09-27T22:16:11.337Z,11.86
2023-09-27T22:18:39.183Z,11.13
2023-09-27T22:21:18.447Z,11.74
2023-09-27T22:23:47.082Z,11.73
2023-09-27T22:26:18.293Z,11.46
2023-09-27T22:28:46.934Z,11.58
2023-09-27T22:31:15.391Z,12.09
2023-09-27T22:33:49.845Z,11.95
2023-09-27T22:36:16.496Z,11.87
2023-09-27T22:38:43.669Z,11.99
2023-09-27T22:41:17.018Z,12.18
2023-09-27T22:43:45.207Z,12.23
2023-09-27T22:46:12.162Z,12.89
2023-09-27T22:48:38.870Z,12.59
2023-09-27T22:51:08.996Z,12.16
2023-09-27T22:53:36.832Z,11.87
2023-09-27T22:56:05.946Z,12.40
2023-09-27T22:58:34.799Z,12.37
2023-09-27T23:01:21.680Z,11.88
2023-09-27T23:03:49.004Z,11.85
2023-09-27T23:06:21.664Z,11.71
2023-09-27T23:08:50.430Z,11.76
2023-09-27T23:11:20.466Z,11.29
2023-09-27T23:13:58.720Z,11.39
2023-09-27T23:16:27.940Z,11.10
2023-09-27T23:19:05.296Z,11.14
2023-09-27T23:21:33.318Z,11.08
2023-09-27T23:24:21.703Z,10.13
2023-09-27T23:27:00.680Z,9.97
2023-09-27T23:29:30.734Z,9.65
2023-09-27T23:32:04.675Z,9.87
2023-09-27T23:34:34.689Z,10.05
2023-09-27T23:37:15.681Z,9.60
2023-09-27T23:39:43.983Z,9.53
2023-09-27T23:42:26.736Z,9.65
2023-09-27T23:44:56.278Z,9.34
2023-09-27T23:47:24.948Z,9.68
2023-09-27T23:50:02.043Z,9.32
2023-09-27T23:52:29.596Z,9.00
2023-09-27T23:55:02.908Z,8.84
2023-09-27T23:57:33.029Z,8.61
